Time;durP1;ratioP1;P1;durP2;ratioP2;P2;SDS_P1;SDS_P2;PMS_P1;PMS_P2;Temp;Humidity;BMP_temperature;BMP_pressure;BME280_temperature;BME280_humidity;BME280_pressure;Samples;Min_cycle;Max_cycle;Signal;HPM_P1;HPM_P2
2023/04/23 00:00:11;;;;;;;44.42;33.05;;;;;;;;;;5053972;28;20049;-76
2023/04/23 00:02:37;;;;;;;41.17;32.08;;;;;;;;;;5050568;28;20076;-76
2023/04/23 00:05:05;;;;;;;40.33;31.27;;;;;;;;;;5054132;28;20112;-76
2023/04/23 00:07:32;;;;;;;43.08;31.63;;;;;;;;;;5051239;28;20045;-77
2023/04/23 00:09:59;;;;;;;41.80;31.08;;;;;;;;;;5052647;28;20072;-76
2023/04/23 00:12:25;;;;;;;41.63;32.38;;;;;;;;;;5050342;28;20052;-76
2023/04/23 00:14:51;;;;;;;41.20;31.05;;;;;;;;;;5054285;28;20064;-75
2023/04/23 00:17:18;;;;;;;43.63;33.15;;;;;;;;;;5053388;28;20052;-77
2023/04/23 00:19:45;;;;;;;39.78;30.45;;;;;;;;;;5052351;28;20526;-76
2023/04/23 00:22:12;;;;;;;36.50;29.40;;;;;;;;;;5052903;28;20045;-76
2023/04/23 00:24:38;;;;;;;37.03;29.77;;;;;;;;;;5037751;28;20037;-77
2023/04/23 00:27:05;;;;;;;36.95;30.02;;;;;;;;;;5052901;28;20045;-76
2023/04/23 00:29:32;;;;;;;36.60;29.50;;;;;;;;;;5053699;28;20092;-75
2023/04/23 00:31:58;;;;;;;35.88;28.88;;;;;;;;;;5051042;28;20047;-76
2023/04/23 00:34:24;;;;;;;34.00;28.88;;;;;;;;;;5053211;28;20495;-76
2023/04/23 00:36:50;;;;;;;37.63;30.02;;;;;;;;;;5053735;28;20045;-76
2023/04/23 00:39:16;;;;;;;43.65;32.03;;;;;;;;;;5052490;28;20064;-76
2023/04/23 00:41:43;;;;;;;37.78;30.05;;;;;;;;;;5053357;28;20431;-76
2023/04/23 00:44:09;;;;;;;35.20;28.65;;;;;;;;;;5049856;28;21142;-75
2023/04/23 00:46:35;;;;;;;37.08;29.52;;;;;;;;;;5052376;28;20045;-76
2023/04/23 00:49:02;;;;;;;40.45;29.88;;;;;;;;;;5054113;28;20517;-76
2023/04/23 00:51:29;;;;;;;36.97;29.92;;;;;;;;;;5053784;28;20045;-76
2023/04/23 00:53:55;;;;;;;38.95;29.52;;;;;;;;;;5052671;28;20749;-76
2023/04/23 00:56:22;;;;;;;34.65;28.08;;;;;;;;;;5052659;28;20049;-75
2023/04/23 00:58:49;;;;;;;36.65;27.67;;;;;;;;;;5053147;28;20041;-75
2023/04/23 01:01:19;;;;;;;35.15;29.83;;;;;;;;;;5051340;28;20037;-76
2023/04/23 01:03:45;;;;;;;39.20;29.40;;;;;;;;;;5049972;28;20487;-77
2023/04/23 01:06:12;;;;;;;34.80;29.45;;;;;;;;;;5051539;28;20037;-76
2023/04/23 01:08:38;;;;;;;36.65;29.98;;;;;;;;;;5051847;28;20047;-76
2023/04/23 01:11:05;;;;;;;37.35;29.35;;;;;;;;;;5048430;28;20080;-76
2023/04/23 01:13:31;;;;;;;39.92;30.85;;;;;;;;;;5050759;28;20130;-76
2023/04/23 01:16:00;;;;;;;37.10;29.55;;;;;;;;;;5053663;28;20519;-75
2023/04/23 01:18:26;;;;;;;39.80;31.20;;;;;;;;;;5052339;28;20044;-76
2023/04/23 01:20:53;;;;;;;38.10;30.25;;;;;;;;;;5052240;28;20391;-76
2023/04/23 01:23:19;;;;;;;40.08;32.33;;;;;;;;;;5050874;28;20045;-76
2023/04/23 01:25:45;;;;;;;42.38;32.10;;;;;;;;;;5052431;28;20445;-77
2023/04/23 01:28:11;;;;;;;42.15;32.40;;;;;;;;;;5051323;28;20057;-77
2023/04/23 01:30:38;;;;;;;41.15;33.13;;;;;;;;;;5051565;28;20048;-77
2023/04/23 01:33:05;;;;;;;45.05;33.63;;;;;;;;;;5051861;28;20110;-77
2023/04/23 01:35:31;;;;;;;39.75;31.40;;;;;;;;;;5050958;28;20116;-77
2023/04/23 01:37:58;;;;;;;48.42;34.97;;;;;;;;;;5050381;28;20049;-76
2023/04/23 01:40:24;;;;;;;43.33;34.10;;;;;;;;;;5051820;28;20457;-76
2023/04/23 01:42:50;;;;;;;47.85;35.97;;;;;;;;;;5051962;28;20047;-76
2023/04/23 01:45:18;;;;;;;43.17;34.53;;;;;;;;;;5050545;28;20414;-76
2023/04/23 01:47:46;;;;;;;49.25;36.85;;;;;;;;;;5045543;28;20091;-76
2023/04/23 01:50:12;;;;;;;46.25;36.38;;;;;;;;;;5051489;28;20045;-75
2023/04/23 01:52:39;;;;;;;49.35;38.13;;;;;;;;;;5051674;28;20479;-77
2023/04/23 01:55:05;;;;;;;62.13;43.95;;;;;;;;;;5050495;28;20158;-76
2023/04/23 01:57:31;;;;;;;63.00;45.53;;;;;;;;;;5050046;28;20510;-77
2023/04/23 02:00:07;;;;;;;60.75;45.30;;;;;;;;;;5051030;28;20118;-75
2023/04/23 02:02:33;;;;;;;62.30;45.65;;;;;;;;;;5047489;28;20045;-76
2023/04/23 02:05:03;;;;;;;66.80;47.65;;;;;;;;;;5051200;28;20510;-76
2023/04/23 02:07:30;;;;;;;68.82;47.40;;;;;;;;;;5050084;28;20081;-76
2023/04/23 02:09:56;;;;;;;66.25;45.45;;;;;;;;;;5049151;28;20106;-76
2023/04/23 02:12:22;;;;;;;63.28;46.35;;;;;;;;;;5049845;28;20495;-76
2023/04/23 02:14:48;;;;;;;66.93;46.15;;;;;;;;;;5051049;28;20045;-76
2023/04/23 02:17:14;;;;;;;65.68;45.75;;;;;;;;;;5051591;28;20045;-76
2023/04/23 02:19:40;;;;;;;67.70;48.15;;;;;;;;;;5049568;28;20056;-76
2023/04/23 02:22:08;;;;;;;66.97;46.55;;;;;;;;;;5052600;28;20084;-76
2023/04/23 02:24:34;;;;;;;72.53;47.67;;;;;;;;;;5038650;28;20036;-76
2023/04/23 02:27:00;;;;;;;67.05;47.35;;;;;;;;;;5051915;28;20049;-76
2023/04/23 02:29:26;;;;;;;68.90;47.22;;;;;;;;;;5051778;28;20410;-77
2023/04/23 02:31:53;;;;;;;63.65;45.47;;;;;;;;;;5051792;28;20040;-76
2023/04/23 02:34:19;;;;;;;67.13;48.08;;;;;;;;;;5056194;28;20368;-76
2023/04/23 02:36:45;;;;;;;67.10;47.65;;;;;;;;;;5055983;28;20084;-77
2023/04/23 02:39:11;;;;;;;66.22;47.42;;;;;;;;;;5055701;28;20071;-76
2023/04/23 02:41:37;;;;;;;68.28;47.75;;;;;;;;;;5055891;28;20037;-76
2023/04/23 02:44:03;;;;;;;63.95;47.45;;;;;;;;;;5056576;28;20045;-75
2023/04/23 02:46:30;;;;;;;69.53;48.95;;;;;;;;;;5055988;28;20052;-75
2023/04/23 02:48:56;;;;;;;69.40;49.78;;;;;;;;;;5054499;28;20485;-76
2023/04/23 02:51:22;;;;;;;73.72;50.42;;;;;;;;;;5055998;28;20457;-76
2023/04/23 02:53:48;;;;;;;69.22;49.03;;;;;;;;;;5054924;28;20509;-77
2023/04/23 02:56:14;;;;;;;74.38;50.45;;;;;;;;;;5053453;28;20041;-76
2023/04/23 02:58:40;;;;;;;81.53;51.75;;;;;;;;;;5055540;28;20052;-77
2023/04/23 03:01:06;;;;;;;68.63;48.42;;;;;;;;;;5057408;28;20104;-75
2023/04/23 03:03:33;;;;;;;74.30;51.03;;;;;;;;;;5058519;28;20041;-76
2023/04/23 03:06:00;;;;;;;73.43;51.53;;;;;;;;;;5054284;28;20108;-76
2023/04/23 03:08:26;;;;;;;74.05;50.83;;;;;;;;;;5049996;28;20041;-76
2023/04/23 03:10:52;;;;;;;76.80;52.13;;;;;;;;;;5052438;28;20183;-77
2023/04/23 03:13:18;;;;;;;77.50;52.25;;;;;;;;;;5052888;28;20395;-74
2023/04/23 03:15:44;;;;;;;73.25;51.65;;;;;;;;;;5054899;28;20048;-76
2023/04/23 03:18:10;;;;;;;75.57;51.97;;;;;;;;;;5054942;28;20037;-76
2023/04/23 03:20:36;;;;;;;80.55;53.08;;;;;;;;;;5054501;28;20041;-76
2023/04/23 03:23:05;;;;;;;83.85;54.13;;;;;;;;;;5054587;28;20041;-77
2023/04/23 03:25:31;;;;;;;78.63;53.72;;;;;;;;;;5054376;28;20124;-77
2023/04/23 03:27:57;;;;;;;81.22;54.38;;;;;;;;;;5054390;28;20091;-77
2023/04/23 03:30:23;;;;;;;81.68;55.88;;;;;;;;;;5054061;28;20372;-76
2023/04/23 03:32:50;;;;;;;93.00;56.88;;;;;;;;;;5054585;28;20402;-76
2023/04/23 03:35:16;;;;;;;89.18;58.35;;;;;;;;;;5053788;28;20068;-76
2023/04/23 03:37:42;;;;;;;88.15;59.05;;;;;;;;;;5053889;28;20668;-76
2023/04/23 03:40:08;;;;;;;92.95;60.72;;;;;;;;;;5053737;28;20043;-76
2023/04/23 03:42:35;;;;;;;99.93;61.65;;;;;;;;;;5053281;28;20499;-76
2023/04/23 03:45:01;;;;;;;98.72;60.97;;;;;;;;;;5054037;28;20045;-76
2023/04/23 03:47:27;;;;;;;94.28;57.10;;;;;;;;;;5052947;28;20155;-77
2023/04/23 03:49:54;;;;;;;92.45;57.72;;;;;;;;;;5054387;28;20041;-76
2023/04/23 03:52:20;;;;;;;89.80;55.38;;;;;;;;;;5053683;28;20090;-76
2023/04/23 03:54:46;;;;;;;89.28;57.85;;;;;;;;;;5054424;28;20124;-76
2023/04/23 03:57:12;;;;;;;95.72;58.35;;;;;;;;;;5051065;28;20048;-77
2023/04/23 03:59:38;;;;;;;99.38;61.53;;;;;;;;;;5053618;28;20041;-76
2023/04/23 04:02:04;;;;;;;108.25;60.78;;;;;;;;;;5050939;28;20631;-76
2023/04/23 04:04:30;;;;;;;101.85;59.25;;;;;;;;;;5053281;28;20040;-76
2023/04/23 04:06:59;;;;;;;89.97;57.88;;;;;;;;;;5053663;28;20041;-76
2023/04/23 04:09:25;;;;;;;128.65;54.28;;;;;;;;;;5050940;28;20064;-76
2023/04/23 04:11:51;;;;;;;120.82;54.90;;;;;;;;;;5052202;28;20133;-77
2023/04/23 04:14:17;;;;;;;122.13;54.13;;;;;;;;;;5052842;28;20119;-75
2023/04/23 04:16:43;;;;;;;127.50;54.83;;;;;;;;;;5052963;28;20147;-76
2023/04/23 04:19:09;;;;;;;186.07;58.65;;;;;;;;;;5053537;28;20128;-76
2023/04/23 04:21:35;;;;;;;263.15;58.65;;;;;;;;;;5050178;28;20083;-76
2023/04/23 04:24:03;;;;;;;89.60;55.72;;;;;;;;;;5051250;28;20052;-77
2023/04/23 04:26:31;;;;;;;129.55;60.13;;;;;;;;;;5052060;28;20460;-76
2023/04/23 04:28:58;;;;;;;88.85;58.10;;;;;;;;;;5051194;28;20096;-77
2023/04/23 04:31:24;;;;;;;97.78;57.72;;;;;;;;;;5051251;28;20051;-76
2023/04/23 04:33:50;;;;;;;103.20;61.15;;;;;;;;;;5051523;28;20041;-76
2023/04/23 04:36:17;;;;;;;115.82;64.57;;;;;;;;;;5051813;28;20395;-76
2023/04/23 04:38:43;;;;;;;100.78;62.70;;;;;;;;;;5053074;28;20427;-76
2023/04/23 04:41:10;;;;;;;98.93;60.75;;;;;;;;;;5051831;28;20037;-75
2023/04/23 04:43:36;;;;;;;95.63;62.13;;;;;;;;;;5052436;28;20045;-76
2023/04/23 04:46:02;;;;;;;113.82;61.70;;;;;;;;;;5051822;28;20400;-76
2023/04/23 04:48:28;;;;;;;110.53;63.95;;;;;;;;;;5052996;28;20041;-77
2023/04/23 04:50:54;;;;;;;268.25;66.72;;;;;;;;;;5051115;28;20408;-76
2023/04/23 04:53:20;;;;;;;286.98;67.25;;;;;;;;;;5050176;28;20410;-77
2023/04/23 04:55:46;;;;;;;236.77;67.88;;;;;;;;;;5052570;28;20033;-76
2023/04/23 04:58:12;;;;;;;132.10;69.50;;;;;;;;;;5051543;28;20044;-76
2023/04/23 05:00:38;;;;;;;130.07;67.88;;;;;;;;;;5051206;28;20045;-76
2023/04/23 05:03:05;;;;;;;122.90;67.90;;;;;;;;;;5050459;28;20048;-76
2023/04/23 05:05:31;;;;;;;111.07;68.85;;;;;;;;;;5051804;28;20069;-76
2023/04/23 05:08:03;;;;;;;115.43;66.30;;;;;;;;;;5051066;28;20568;-76
2023/04/23 05:10:29;;;;;;;139.93;69.47;;;;;;;;;;5050267;28;20105;-76
2023/04/23 05:12:58;;;;;;;131.50;67.45;;;;;;;;;;5051722;28;20037;-77
2023/04/23 05:15:24;;;;;;;114.20;66.43;;;;;;;;;;5054905;28;20077;-76
2023/04/23 05:17:52;;;;;;;108.82;67.55;;;;;;;;;;5053992;28;20545;-76
2023/04/23 05:20:18;;;;;;;116.20;68.40;;;;;;;;;;5052243;28;20056;-76
2023/04/23 05:22:44;;;;;;;113.63;67.43;;;;;;;;;;5052449;28;20152;-76
2023/04/23 05:25:11;;;;;;;103.70;67.75;;;;;;;;;;5052144;28;20505;-76
2023/04/23 05:27:37;;;;;;;97.10;64.30;;;;;;;;;;5052438;28;20082;-76
2023/04/23 05:30:04;;;;;;;103.43;66.47;;;;;;;;;;5052854;28;20041;-76
2023/04/23 05:32:31;;;;;;;100.55;64.93;;;;;;;;;;5053890;28;20080;-76
2023/04/23 05:34:58;;;;;;;101.78;64.68;;;;;;;;;;5050716;28;20044;-76
2023/04/23 05:37:24;;;;;;;109.35;67.57;;;;;;;;;;5050211;28;20120;-76
2023/04/23 05:39:50;;;;;;;102.43;66.95;;;;;;;;;;5050987;28;20048;-76
2023/04/23 05:42:17;;;;;;;98.03;65.32;;;;;;;;;;5052089;28;20055;-77
2023/04/23 05:44:43;;;;;;;97.72;64.30;;;;;;;;;;5052537;28;20041;-76
2023/04/23 05:47:10;;;;;;;101.35;66.47;;;;;;;;;;5052018;28;20052;-76
2023/04/23 05:49:36;;;;;;;104.40;67.70;;;;;;;;;;5051219;28;20036;-78
2023/04/23 05:52:02;;;;;;;106.28;67.53;;;;;;;;;;5051779;28;20123;-75
2023/04/23 05:54:28;;;;;;;109.15;69.15;;;;;;;;;;5051332;28;20049;-76
2023/04/23 05:56:54;;;;;;;106.57;68.35;;;;;;;;;;5050535;28;20041;-76
2023/04/23 05:59:21;;;;;;;106.50;65.22;;;;;;;;;;5051286;28;20455;-76
2023/04/23 06:01:47;;;;;;;114.57;69.20;;;;;;;;;;5049270;28;20038;-77
2023/04/23 06:04:14;;;;;;;111.55;70.20;;;;;;;;;;5051288;28;20091;-76
2023/04/23 06:06:40;;;;;;;111.32;71.22;;;;;;;;;;5050263;28;20127;-76
2023/04/23 06:09:06;;;;;;;111.03;70.50;;;;;;;;;;5054493;28;20164;-76
2023/04/23 06:11:32;;;;;;;113.00;68.43;;;;;;;;;;5053341;28;20083;-77
2023/04/23 06:13:58;;;;;;;102.78;68.63;;;;;;;;;;5053850;28;20078;-77
2023/04/23 06:16:25;;;;;;;104.97;67.72;;;;;;;;;;5053074;28;20044;-76
2023/04/23 06:18:51;;;;;;;101.35;68.28;;;;;;;;;;5054964;28;20079;-76
2023/04/23 06:21:17;;;;;;;95.00;66.18;;;;;;;;;;5053760;28;20049;-77
2023/04/23 06:23:43;;;;;;;86.25;63.97;;;;;;;;;;5054388;28;20434;-77
2023/04/23 06:26:09;;;;;;;80.50;60.45;;;;;;;;;;5054997;28;20056;-76
2023/04/23 06:28:35;;;;;;;71.68;57.83;;;;;;;;;;5050184;28;20072;-77
2023/04/23 06:31:01;;;;;;;71.25;57.72;;;;;;;;;;5055007;28;20463;-76
2023/04/23 06:33:27;;;;;;;71.20;56.30;;;;;;;;;;5057168;28;20052;-77
2023/04/23 06:35:53;;;;;;;68.30;56.05;;;;;;;;;;5054740;28;20490;-77
2023/04/23 06:38:21;;;;;;;64.85;53.58;;;;;;;;;;5058439;28;20045;-77
2023/04/23 06:40:47;;;;;;;61.65;52.55;;;;;;;;;;5053422;28;20119;-77
2023/04/23 06:43:14;;;;;;;68.05;53.38;;;;;;;;;;5055291;28;20063;-77
2023/04/23 06:45:40;;;;;;;60.00;52.08;;;;;;;;;;5053677;28;20067;-77
2023/04/23 06:48:06;;;;;;;58.33;51.03;;;;;;;;;;5054845;28;20041;-76
2023/04/23 06:50:32;;;;;;;57.10;49.67;;;;;;;;;;5053453;28;20056;-77
2023/04/23 06:52:58;;;;;;;57.90;50.67;;;;;;;;;;5053757;28;20055;-77
2023/04/23 06:55:25;;;;;;;56.88;50.35;;;;;;;;;;5054982;28;20045;-76
2023/04/23 06:57:54;;;;;;;54.35;48.58;;;;;;;;;;5054279;28;20132;-76
2023/04/23 07:00:21;;;;;;;52.83;47.13;;;;;;;;;;5052631;28;20049;-77
2023/04/23 07:02:48;;;;;;;51.03;45.47;;;;;;;;;;5053622;28;20045;-76
2023/04/23 07:05:14;;;;;;;53.75;47.60;;;;;;;;;;5054437;28;20056;-76
2023/04/23 07:07:42;;;;;;;49.45;44.08;;;;;;;;;;5052852;28;20058;-77
2023/04/23 07:10:08;;;;;;;48.78;43.58;;;;;;;;;;5054222;28;20139;-77
2023/04/23 07:12:35;;;;;;;45.50;40.60;;;;;;;;;;5051054;28;20044;-77
2023/04/23 07:15:01;;;;;;;44.35;39.78;;;;;;;;;;5051119;28;20100;-77
2023/04/23 07:17:27;;;;;;;43.97;39.28;;;;;;;;;;5052971;28;20067;-76
2023/04/23 07:19:53;;;;;;;44.65;39.95;;;;;;;;;;5054818;28;20040;-77
2023/04/23 07:22:19;;;;;;;43.60;39.00;;;;;;;;;;5053634;28;20188;-76
2023/04/23 07:24:45;;;;;;;43.20;38.50;;;;;;;;;;5055074;28;20049;-77
2023/04/23 07:27:11;;;;;;;41.35;37.15;;;;;;;;;;5056374;28;20087;-76
2023/04/23 07:29:37;;;;;;;41.40;37.10;;;;;;;;;;5055852;28;20526;-77
2023/04/23 07:32:04;;;;;;;38.47;34.50;;;;;;;;;;5054124;28;20037;-77
2023/04/23 07:34:30;;;;;;;39.22;35.05;;;;;;;;;;5053420;28;20049;-77
2023/04/23 07:36:56;;;;;;;38.70;34.80;;;;;;;;;;5054205;28;20045;-77
2023/04/23 07:39:22;;;;;;;40.25;36.05;;;;;;;;;;5054675;28;20063;-76
2023/04/23 07:41:48;;;;;;;39.13;34.95;;;;;;;;;;5052180;28;20053;-76
2023/04/23 07:44:15;;;;;;;39.53;35.38;;;;;;;;;;5053531;28;20045;-77
2023/04/23 07:46:41;;;;;;;38.22;34.22;;;;;;;;;;5048874;28;20506;-77
2023/04/23 07:49:07;;;;;;;37.63;33.72;;;;;;;;;;5047912;28;20502;-77
2023/04/23 07:51:33;;;;;;;37.53;32.97;;;;;;;;;;5052314;28;20049;-76
2023/04/23 07:53:59;;;;;;;36.70;32.90;;;;;;;;;;5053902;28;20041;-77
2023/04/23 07:56:25;;;;;;;35.78;32.08;;;;;;;;;;5052183;28;20129;-77
2023/04/23 07:58:52;;;;;;;34.42;30.90;;;;;;;;;;5050040;28;20067;-78
2023/04/23 08:01:19;;;;;;;35.60;31.80;;;;;;;;;;5051216;28;20567;-77
2023/04/23 08:03:45;;;;;;;35.58;31.83;;;;;;;;;;5053585;28;20090;-77
2023/04/23 08:06:11;;;;;;;38.08;34.03;;;;;;;;;;5051297;28;20151;-77
2023/04/23 08:08:38;;;;;;;36.45;32.55;;;;;;;;;;5053386;28;20057;-77
2023/04/23 08:11:05;;;;;;;35.03;31.27;;;;;;;;;;5049906;28;20097;-77
2023/04/23 08:13:31;;;;;;;34.05;30.45;;;;;;;;;;5053488;28;20049;-76
2023/04/23 08:15:57;;;;;;;34.67;30.90;;;;;;;;;;5055317;28;20049;-77
2023/04/23 08:18:23;;;;;;;34.95;31.17;;;;;;;;;;5052789;28;20045;-77
2023/04/23 08:20:49;;;;;;;32.70;29.20;;;;;;;;;;5052696;28;20083;-77
2023/04/23 08:23:16;;;;;;;30.77;27.55;;;;;;;;;;5052141;28;20529;-76
2023/04/23 08:25:42;;;;;;;34.00;30.30;;;;;;;;;;5052618;28;20037;-76
2023/04/23 08:28:08;;;;;;;30.60;27.27;;;;;;;;;;5052012;28;20041;-77
2023/04/23 08:30:34;;;;;;;29.27;26.17;;;;;;;;;;5052496;28;20041;-77
2023/04/23 08:33:00;;;;;;;30.10;26.08;;;;;;;;;;5052565;28;20047;-77
2023/04/23 08:35:26;;;;;;;30.67;26.83;;;;;;;;;;5053085;28;20041;-77
2023/04/23 08:37:52;;;;;;;30.30;26.92;;;;;;;;;;5051891;28;20072;-77
2023/04/23 08:40:18;;;;;;;28.92;25.92;;;;;;;;;;5053134;28;20506;-77
2023/04/23 08:42:50;;;;;;;28.38;25.42;;;;;;;;;;5051350;28;20899;-77
2023/04/23 08:45:17;;;;;;;30.02;26.23;;;;;;;;;;5051903;28;20041;-77
2023/04/23 08:47:43;;;;;;;31.38;27.55;;;;;;;;;;5044972;28;20104;-76
2023/04/23 08:50:13;;;;;;;32.40;26.02;;;;;;;;;;5049197;28;20495;-76
2023/04/23 08:52:44;;;;;;;28.92;25.63;;;;;;;;;;5053309;28;20511;-77
2023/04/23 08:55:10;;;;;;;28.27;25.25;;;;;;;;;;5054178;28;20068;-76
2023/04/23 08:57:37;;;;;;;28.73;25.73;;;;;;;;;;5049530;28;20040;-76
2023/04/23 09:00:06;;;;;;;29.98;26.73;;;;;;;;;;5053271;28;20045;-76
2023/04/23 09:02:37;;;;;;;28.45;24.42;;;;;;;;;;5054180;28;20052;-76
2023/04/23 09:05:03;;;;;;;29.77;25.90;;;;;;;;;;5053271;28;20060;-75
2023/04/23 09:07:30;;;;;;;27.60;24.70;;;;;;;;;;5052088;28;20427;-76
2023/04/23 09:09:56;;;;;;;27.92;24.92;;;;;;;;;;5052525;28;20052;-76
2023/04/23 09:12:22;;;;;;;30.23;26.17;;;;;;;;;;5052286;28;20099;-75
2023/04/23 09:14:52;;;;;;;26.73;23.73;;;;;;;;;;5051932;28;20049;-76
2023/04/23 09:17:19;;;;;;;28.63;25.17;;;;;;;;;;5051664;28;20414;-76
2023/04/23 09:19:45;;;;;;;28.35;23.80;;;;;;;;;;5051959;28;20306;-77
2023/04/23 09:22:12;;;;;;;24.38;20.75;;;;;;;;;;5052066;28;20041;-77
2023/04/23 09:24:44;;;;;;;28.45;22.17;;;;;;;;;;5051734;28;20037;-76
2023/04/23 09:27:10;;;;;;;24.75;21.40;;;;;;;;;;5050172;28;20155;-76
2023/04/23 09:29:36;;;;;;;24.70;20.10;;;;;;;;;;5052041;28;20459;-75
2023/04/23 09:32:06;;;;;;;21.52;19.02;;;;;;;;;;5052775;28;20128;-75
2023/04/23 09:34:34;;;;;;;21.58;19.27;;;;;;;;;;5052035;28;20058;-76
2023/04/23 09:37:00;;;;;;;20.98;17.60;;;;;;;;;;5052037;28;20083;-76
2023/04/23 09:39:26;;;;;;;20.45;16.85;;;;;;;;;;5053897;28;20419;-75
2023/04/23 09:41:52;;;;;;;20.33;16.50;;;;;;;;;;5053544;28;20053;-76
2023/04/23 09:44:22;;;;;;;18.20;15.05;;;;;;;;;;5053549;28;20047;-76
2023/04/23 09:46:49;;;;;;;18.13;14.85;;;;;;;;;;5053665;28;20087;-76
2023/04/23 09:49:15;;;;;;;17.02;13.95;;;;;;;;;;5052951;28;20120;-76
2023/04/23 09:51:42;;;;;;;18.75;12.82;;;;;;;;;;5051881;28;20407;-76
2023/04/23 09:54:22;;;;;;;19.55;15.15;;;;;;;;;;5049943;28;20103;-76
2023/04/23 09:56:55;;;;;;;16.60;13.55;;;;;;;;;;5050445;28;20124;-76
2023/04/23 09:59:24;;;;;;;17.20;11.60;;;;;;;;;;5052451;28;20057;-78
2023/04/23 10:01:51;;;;;;;16.50;11.43;;;;;;;;;;5052586;28;20052;-76
2023/04/23 10:04:19;;;;;;;13.55;10.48;;;;;;;;;;5052461;28;20193;-75
2023/04/23 10:06:46;;;;;;;15.45;10.88;;;;;;;;;;5050163;28;20483;-76
2023/04/23 10:09:12;;;;;;;15.50;10.50;;;;;;;;;;5051263;28;20124;-76
2023/04/23 10:11:38;;;;;;;18.05;11.48;;;;;;;;;;5052999;28;20049;-77
2023/04/23 10:14:05;;;;;;;14.52;7.78;;;;;;;;;;5050812;28;20126;-76
2023/04/23 10:16:31;;;;;;;10.88;7.97;;;;;;;;;;5052693;28;20040;-76
2023/04/23 10:19:00;;;;;;;14.77;7.28;;;;;;;;;;5052888;28;20037;-76
2023/04/23 10:21:28;;;;;;;11.07;6.07;;;;;;;;;;5052146;28;20049;-77
2023/04/23 10:23:54;;;;;;;11.88;7.20;;;;;;;;;;5071789;28;20356;-76
2023/04/23 10:26:25;;;;;;;13.25;7.65;;;;;;;;;;5052798;28;20049;-77
2023/04/23 10:28:53;;;;;;;14.20;6.82;;;;;;;;;;5053032;28;20041;-76
2023/04/23 10:31:20;;;;;;;11.05;6.97;;;;;;;;;;5051005;28;20037;-75
2023/04/23 10:33:49;;;;;;;10.00;6.05;;;;;;;;;;5050896;28;20041;-76
2023/04/23 10:36:15;;;;;;;13.00;6.28;;;;;;;;;;5051635;28;20113;-77
2023/04/23 10:38:41;;;;;;;13.60;7.22;;;;;;;;;;5052793;28;20048;-77
2023/04/23 10:41:08;;;;;;;10.95;6.35;;;;;;;;;;5042849;28;20072;-77
2023/04/23 10:43:34;;;;;;;10.80;6.15;;;;;;;;;;5048788;28;20041;-77
2023/04/23 10:46:01;;;;;;;11.02;6.03;;;;;;;;;;5050276;28;20379;-77
2023/04/23 10:48:50;;;;;;;11.93;6.00;;;;;;;;;;5049290;28;20123;-77
2023/04/23 10:51:16;;;;;;;11.73;5.43;;;;;;;;;;5032353;28;20049;-77
2023/04/23 10:53:42;;;;;;;10.68;5.90;;;;;;;;;;5051206;28;20045;-77
2023/04/23 10:56:09;;;;;;;10.80;5.35;;;;;;;;;;5046948;28;20036;-77
2023/04/23 10:58:48;;;;;;;10.38;4.38;;;;;;;;;;5055239;28;20041;-76
2023/04/23 11:01:14;;;;;;;9.77;4.30;;;;;;;;;;5054354;28;20056;-77
2023/04/23 11:03:41;;;;;;;9.65;4.28;;;;;;;;;;5055168;28;20060;-77
2023/04/23 11:06:07;;;;;;;10.05;4.35;;;;;;;;;;5052203;28;20503;-77
2023/04/23 11:08:37;;;;;;;10.50;4.57;;;;;;;;;;5053604;28;20107;-77
2023/04/23 11:11:07;;;;;;;8.73;4.25;;;;;;;;;;5051756;28;20049;-77
2023/04/23 11:13:33;;;;;;;8.27;3.60;;;;;;;;;;5052261;28;20589;-77
2023/04/23 11:16:16;;;;;;;8.48;3.75;;;;;;;;;;5051281;28;20033;-77
2023/04/23 11:19:06;;;;;;;9.80;3.67;;;;;;;;;;5053756;28;20037;-76
2023/04/23 11:21:51;;;;;;;9.77;3.65;;;;;;;;;;5054820;28;20061;-76
2023/04/23 11:24:17;;;;;;;9.95;3.60;;;;;;;;;;5054522;28;20045;-77
2023/04/23 11:26:43;;;;;;;8.38;3.33;;;;;;;;;;5053548;28;20128;-77
2023/04/23 11:29:11;;;;;;;9.20;3.13;;;;;;;;;;5055169;28;20079;-77
2023/04/23 11:31:37;;;;;;;11.73;3.20;;;;;;;;;;5054467;28;20070;-78
2023/04/23 11:34:03;;;;;;;7.50;3.03;;;;;;;;;;5055439;28;20041;-77
2023/04/23 11:36:29;;;;;;;11.73;3.33;;;;;;;;;;5055869;28;20041;-77
2023/04/23 11:38:56;;;;;;;8.18;3.25;;;;;;;;;;5054502;28;20037;-77
2023/04/23 11:41:22;;;;;;;10.27;3.20;;;;;;;;;;5055371;28;20044;-78
2023/04/23 11:43:48;;;;;;;9.38;2.38;;;;;;;;;;5054659;28;20048;-78
2023/04/23 11:46:14;;;;;;;7.75;2.63;;;;;;;;;;5054999;28;20041;-78
2023/04/23 11:48:42;;;;;;;7.28;2.35;;;;;;;;;;5055513;28;20499;-77
2023/04/23 11:51:09;;;;;;;6.18;1.98;;;;;;;;;;5055917;28;20095;-78
2023/04/23 11:53:35;;;;;;;9.90;2.42;;;;;;;;;;5045108;28;20053;-77
2023/04/23 11:56:01;;;;;;;7.32;2.30;;;;;;;;;;5055686;28;20063;-77
2023/04/23 11:58:27;;;;;;;7.18;2.70;;;;;;;;;;5056032;28;20066;-77
2023/04/23 12:01:00;;;;;;;6.88;2.60;;;;;;;;;;5055110;28;20041;-76
2023/04/23 12:03:26;;;;;;;7.47;2.70;;;;;;;;;;5055168;28;20053;-77
2023/04/23 12:05:54;;;;;;;9.25;2.60;;;;;;;;;;5054063;28;20453;-77
2023/04/23 12:08:21;;;;;;;9.57;2.53;;;;;;;;;;5045124;28;20089;-77
2023/04/23 12:10:53;;;;;;;8.27;2.53;;;;;;;;;;5054471;28;20056;-75
2023/04/23 12:13:28;;;;;;;10.10;2.17;;;;;;;;;;5054681;28;20033;-76
2023/04/23 12:15:56;;;;;;;7.05;1.70;;;;;;;;;;5054048;28;20147;-76
2023/04/23 12:18:32;;;;;;;7.45;2.13;;;;;;;;;;5055036;28;20150;-77
2023/04/23 12:21:06;;;;;;;5.88;1.85;;;;;;;;;;5054568;28;20049;-76
2023/04/23 12:23:35;;;;;;;9.57;1.88;;;;;;;;;;5054336;28;20044;-76
2023/04/23 12:26:02;;;;;;;6.75;2.03;;;;;;;;;;5054164;28;20394;-76
2023/04/23 12:28:28;;;;;;;7.80;1.90;;;;;;;;;;5054060;28;20123;-77
2023/04/23 12:30:59;;;;;;;8.25;1.75;;;;;;;;;;5054590;28;20037;-78
2023/04/23 12:33:28;;;;;;;8.93;2.05;;;;;;;;;;5054544;28;20045;-77
2023/04/23 12:35:54;;;;;;;5.55;1.83;;;;;;;;;;5053896;28;20144;-76
2023/04/23 12:38:24;;;;;;;8.48;2.03;;;;;;;;;;5054511;28;20041;-76
2023/04/23 12:40:54;;;;;;;7.95;1.98;;;;;;;;;;5053633;28;20124;-76
2023/04/23 12:43:20;;;;;;;8.05;1.83;;;;;;;;;;5052575;28;20049;-76
2023/04/23 12:45:46;;;;;;;8.13;2.13;;;;;;;;;;5053700;28;20055;-75
2023/04/23 12:48:13;;;;;;;6.55;1.80;;;;;;;;;;5053549;28;20570;-77
2023/04/23 12:50:39;;;;;;;7.90;1.92;;;;;;;;;;5053801;28;20067;-76
2023/04/23 12:53:06;;;;;;;7.68;1.52;;;;;;;;;;5044079;28;20041;-75
2023/04/23 12:55:33;;;;;;;6.50;1.67;;;;;;;;;;5050587;28;20453;-76
2023/04/23 12:57:59;;;;;;;7.75;1.80;;;;;;;;;;5054332;28;20083;-77
2023/04/23 13:00:26;;;;;;;8.43;1.40;;;;;;;;;;5050606;28;20041;-76
2023/04/23 13:02:52;;;;;;;7.55;1.77;;;;;;;;;;5053782;28;20045;-77
2023/04/23 13:05:18;;;;;;;7.38;1.70;;;;;;;;;;5053822;28;20552;-77
2023/04/23 13:07:44;;;;;;;6.45;1.60;;;;;;;;;;5052911;28;20487;-76
2023/04/23 13:10:10;;;;;;;8.10;1.88;;;;;;;;;;5053261;28;20125;-77
2023/04/23 13:12:36;;;;;;;9.30;1.80;;;;;;;;;;5051531;28;20041;-77
2023/04/23 13:15:03;;;;;;;8.25;1.70;;;;;;;;;;5047796;28;20037;-76
2023/04/23 13:17:30;;;;;;;6.65;1.70;;;;;;;;;;5045640;28;20041;-77
2023/04/23 13:19:57;;;;;;;7.13;1.80;;;;;;;;;;5046232;28;20423;-78
2023/04/23 13:22:27;;;;;;;8.85;1.50;;;;;;;;;;5051393;28;20037;-77
2023/04/23 13:24:55;;;;;;;8.10;1.70;;;;;;;;;;5052885;28;20188;-76
2023/04/23 13:27:22;;;;;;;8.80;2.00;;;;;;;;;;5054196;28;20049;-76
2023/04/23 13:29:48;;;;;;;6.95;1.65;;;;;;;;;;5052280;28;20044;-77
2023/04/23 13:32:15;;;;;;;8.60;1.95;;;;;;;;;;5047393;28;20045;-77
2023/04/23 13:34:41;;;;;;;6.45;1.80;;;;;;;;;;5051468;28;20052;-77
2023/04/23 13:37:08;;;;;;;8.00;1.60;;;;;;;;;;5045642;28;20036;-75
2023/04/23 13:39:34;;;;;;;7.25;1.75;;;;;;;;;;5044166;28;20517;-75
2023/04/23 13:42:03;;;;;;;7.05;1.75;;;;;;;;;;5042415;28;20064;-76
2023/04/23 13:44:29;;;;;;;6.40;1.80;;;;;;;;;;5045648;28;20064;-76
2023/04/23 13:46:57;;;;;;;8.57;1.63;;;;;;;;;;5049722;28;20053;-76
2023/04/23 13:49:24;;;;;;;8.52;1.98;;;;;;;;;;5040130;28;20125;-76
2023/04/23 13:51:52;;;;;;;6.78;1.58;;;;;;;;;;5046577;28;20037;-76
2023/04/23 13:54:19;;;;;;;5.50;1.70;;;;;;;;;;5045411;28;20072;-76
2023/04/23 13:56:45;;;;;;;7.80;1.60;;;;;;;;;;5046860;28;20041;-76
2023/04/23 13:59:11;;;;;;;7.10;1.42;;;;;;;;;;5047168;28;20041;-76
2023/04/23 14:01:38;;;;;;;6.07;1.50;;;;;;;;;;5045520;28;20067;-77
2023/04/23 14:04:04;;;;;;;7.00;1.52;;;;;;;;;;5051369;28;20053;-77
2023/04/23 14:06:30;;;;;;;9.00;1.80;;;;;;;;;;5053684;28;20049;-76
2023/04/23 14:08:56;;;;;;;7.80;1.80;;;;;;;;;;5047722;28;20071;-76
2023/04/23 14:11:22;;;;;;;8.48;1.80;;;;;;;;;;5046352;28;20056;-77
2023/04/23 14:13:48;;;;;;;7.65;2.10;;;;;;;;;;5046902;28;20064;-76
2023/04/23 14:16:14;;;;;;;8.18;1.65;;;;;;;;;;5045787;28;20048;-76
2023/04/23 14:18:40;;;;;;;7.30;1.45;;;;;;;;;;5047264;28;20380;-76